createdAt,value
2023-05-22T00:00:12.730Z,10.88
2023-05-22T00:02:59.926Z,10.53
2023-05-22T00:05:27.170Z,10.24
2023-05-22T00:07:54.122Z,9.95
2023-05-22T00:10:21.004Z,9.67
2023-05-22T00:12:47.762Z,9.84
2023-05-22T00:15:14.472Z,10.66
2023-05-22T00:17:42.699Z,11.37
2023-05-22T00:20:10.382Z,11.87
2023-05-22T00:22:37.073Z,12.24
2023-05-22T00:25:04.993Z,12.51
2023-05-22T00:27:33.001Z,12.72
2023-05-22T00:29:59.880Z,12.91
2023-05-22T00:32:26.770Z,13.08
2023-05-22T00:34:53.643Z,13.21
2023-05-22T00:37:20.639Z,13.34
2023-05-22T00:39:48.464Z,13.41
2023-05-22T00:42:15.315Z,12.92
2023-05-22T00:44:42.224Z,12.10
2023-05-22T00:47:08.862Z,11.47
2023-05-22T00:49:35.842Z,10.98
2023-05-22T00:52:02.878Z,10.57
2023-05-22T00:54:30.411Z,10.25
2023-05-22T00:56:57.252Z,9.97
2023-05-22T00:59:23.984Z,9.71
2023-05-22T01:01:50.790Z,9.46
2023-05-22T01:04:18.145Z,9.23
2023-05-22T01:06:46.840Z,9.02
2023-05-22T01:09:14.205Z,9.36
2023-05-22T01:12:10.794Z,10.28
2023-05-22T01:14:48.598Z,11.08
2023-05-22T01:17:34.225Z,11.54
2023-05-22T01:20:10.563Z,11.89
2023-05-22T01:23:08.478Z,12.17
2023-05-22T01:25:35.617Z,12.44
2023-05-22T01:28:15.250Z,12.56
2023-05-22T01:30:57.302Z,12.02
2023-05-22T01:33:25.593Z,11.14
2023-05-22T01:35:53.421Z,10.53
2023-05-22T01:38:20.168Z,10.05
2023-05-22T01:40:47.104Z,9.67
2023-05-22T01:43:14.959Z,9.32
2023-05-22T01:45:41.854Z,9.02
2023-05-22T01:48:08.636Z,8.73
2023-05-22T01:50:35.515Z,8.52
2023-05-22T01:53:32.376Z,9.14
2023-05-22T01:56:43.321Z,10.08
2023-05-22T01:59:19.390Z,10.76
2023-05-22T02:01:46.285Z,11.13
2023-05-22T02:04:12.963Z,11.44
2023-05-22T02:06:39.788Z,11.69
2023-05-22T02:09:06.629Z,11.86
2023-05-22T02:11:35.677Z,11.99
2023-05-22T02:14:05.639Z,12.07
2023-05-22T02:16:34.627Z,12.13
2023-05-22T02:19:05.674Z,11.92
2023-05-22T02:21:33.975Z,11.09
2023-05-22T02:24:01.684Z,10.36
2023-05-22T02:26:29.110Z,9.82
2023-05-22T02:28:55.860Z,9.41
2023-05-22T02:31:22.575Z,9.06
2023-05-22T02:33:49.711Z,8.74
2023-05-22T02:36:16.431Z,8.45
2023-05-22T02:38:46.744Z,8.21
2023-05-22T02:41:13.796Z,8.03
2023-05-22T02:43:40.639Z,7.88
2023-05-22T02:46:07.357Z,7.75
2023-05-22T02:48:34.186Z,7.63
2023-05-22T02:51:01.513Z,7.56
2023-05-22T02:53:28.117Z,8.25
2023-05-22T02:55:58.350Z,9.28
2023-05-22T02:58:25.239Z,9.99
2023-05-22T03:00:54.163Z,10.60
2023-05-22T03:03:20.972Z,11.01
2023-05-22T03:05:49.686Z,11.38
2023-05-22T03:08:16.982Z,11.82
2023-05-22T03:10:43.988Z,12.26
2023-05-22T03:13:10.725Z,12.24
2023-05-22T03:15:37.777Z,11.65
2023-05-22T03:18:11.434Z,11.18
2023-05-22T03:20:39.027Z,10.93
2023-05-22T03:23:06.315Z,10.76
2023-05-22T03:25:34.581Z,10.64
2023-05-22T03:28:02.150Z,10.54
2023-05-22T03:30:31.149Z,10.46
2023-05-22T03:33:18.132Z,10.42
2023-05-22T03:35:45.214Z,10.40
2023-05-22T03:38:11.960Z,10.41
2023-05-22T03:40:39.091Z,10.42
2023-05-22T03:43:06.580Z,10.46
2023-05-22T03:45:33.532Z,10.56
2023-05-22T03:48:00.734Z,10.96
2023-05-22T03:50:27.657Z,12.12
2023-05-22T03:52:54.282Z,13.15
2023-05-22T03:55:21.137Z,13.97
2023-05-22T03:57:48.079Z,14.37
2023-05-22T04:00:18.873Z,14.11
2023-05-22T04:02:46.199Z,13.91
2023-05-22T04:05:13.752Z,13.88
2023-05-22T04:07:40.769Z,13.98
2023-05-22T04:10:08.021Z,14.14
2023-05-22T04:12:34.889Z,14.36
2023-05-22T04:15:01.734Z,14.64
2023-05-22T04:17:33.673Z,14.90
2023-05-22T04:20:00.859Z,15.19
2023-05-22T04:22:30.205Z,15.49
2023-05-22T04:24:57.394Z,15.82
2023-05-22T04:27:26.566Z,16.19
2023-05-22T04:29:53.412Z,16.62
2023-05-22T04:32:23.239Z,17.05
2023-05-22T04:34:53.172Z,17.52
2023-05-22T04:37:20.049Z,17.96
2023-05-22T04:39:46.953Z,18.43
2023-05-22T04:42:13.941Z,18.95
2023-05-22T04:44:41.549Z,19.52
2023-05-22T04:47:11.124Z,20.08
2023-05-22T04:49:38.707Z,20.65
2023-05-22T04:52:06.786Z,21.22
2023-05-22T04:54:34.113Z,21.73
2023-05-22T04:57:02.487Z,22.12
2023-05-22T04:59:31.105Z,22.43
2023-05-22T05:01:57.936Z,22.99
2023-05-22T05:04:24.747Z,23.74
2023-05-22T05:06:53.028Z,24.33
2023-05-22T05:09:20.158Z,24.64
2023-05-22T05:11:47.325Z,24.91
2023-05-22T05:14:14.477Z,25.08
2023-05-22T05:16:41.726Z,25.24
2023-05-22T05:19:08.798Z,25.60
2023-05-22T05:21:36.227Z,26.09
2023-05-22T05:24:03.206Z,26.62
2023-05-22T05:26:30.122Z,27.15
2023-05-22T05:28:57.916Z,27.70
2023-05-22T05:31:30.360Z,28.20
2023-05-22T05:34:20.727Z,28.60
2023-05-22T05:36:52.820Z,28.83
2023-05-22T05:39:21.991Z,29.14
2023-05-22T05:41:48.881Z,29.42
2023-05-22T05:44:15.869Z,29.42
2023-05-22T05:46:42.589Z,29.35
2023-05-22T05:49:10.749Z,29.62
2023-05-22T05:51:39.379Z,30.00
2023-05-22T05:54:06.541Z,30.30
2023-05-22T05:56:33.219Z,30.53
2023-05-22T05:59:00.782Z,30.83
2023-05-22T06:01:51.067Z,31.10
2023-05-22T06:04:24.020Z,31.38
2023-05-22T06:06:52.753Z,31.53
2023-05-22T06:09:35.711Z,31.67
2023-05-22T06:12:19.788Z,31.74
2023-05-22T06:14:46.848Z,31.80
2023-05-22T06:17:15.586Z,31.90
2023-05-22T06:19:43.293Z,31.91
2023-05-22T06:22:10.441Z,31.84
2023-05-22T06:24:38.438Z,31.80
2023-05-22T06:27:09.140Z,31.83
2023-05-22T06:29:36.201Z,31.88
2023-05-22T06:32:03.863Z,31.90
2023-05-22T06:34:33.168Z,31.85
2023-05-22T06:36:59.906Z,31.64
2023-05-22T06:39:31.840Z,31.31
2023-05-22T06:41:59.091Z,31.06
2023-05-22T06:44:26.031Z,30.79
2023-05-22T06:46:55.121Z,30.66
2023-05-22T06:49:24.002Z,30.75
2023-05-22T06:51:53.228Z,30.79
2023-05-22T06:54:21.202Z,30.67
2023-05-22T06:56:48.933Z,30.67
2023-05-22T06:59:16.978Z,30.46
2023-05-22T07:02:03.769Z,30.28
2023-05-22T07:05:03.726Z,30.16
2023-05-22T07:07:34.383Z,30.10
2023-05-22T07:10:02.542Z,30.17
2023-05-22T07:12:30.188Z,30.21
2023-05-22T07:14:59.299Z,30.09
2023-05-22T07:17:26.071Z,30.05
2023-05-22T07:19:53.276Z,30.00
2023-05-22T07:22:20.877Z,29.96
2023-05-22T07:24:48.059Z,29.90
2023-05-22T07:27:15.949Z,29.62
2023-05-22T07:29:42.699Z,29.60
2023-05-22T07:32:09.455Z,29.49
2023-05-22T07:34:36.792Z,29.37
2023-05-22T07:37:11.031Z,29.12
2023-05-22T07:39:37.985Z,28.74
2023-05-22T07:42:05.313Z,28.76
2023-05-22T07:44:33.783Z,28.60
2023-05-22T07:47:00.417Z,28.28
2023-05-22T07:49:28.547Z,28.35
2023-05-22T07:51:55.295Z,28.40
2023-05-22T07:54:25.564Z,28.40
2023-05-22T07:56:52.466Z,28.47
2023-05-22T07:59:20.938Z,28.68
2023-05-22T08:01:47.566Z,28.97
2023-05-22T08:06:43.208Z,28.95
2023-05-22T08:09:10.193Z,29.03
2023-05-22T08:11:39.875Z,29.06
2023-05-22T08:14:07.098Z,28.85
2023-05-22T08:16:34.124Z,28.42
2023-05-22T08:19:00.965Z,28.22
2023-05-22T08:21:27.692Z,28.15
2023-05-22T08:23:54.354Z,28.01
2023-05-22T08:26:25.439Z,28.03
2023-05-22T08:28:52.145Z,27.99
2023-05-22T08:31:18.795Z,27.96
2023-05-22T08:33:45.504Z,27.68
2023-05-22T08:36:12.850Z,27.07
2023-05-22T08:38:40.380Z,26.34
2023-05-22T08:41:07.698Z,25.80
2023-05-22T08:43:34.764Z,25.42
2023-05-22T08:46:05.601Z,25.23
2023-05-22T08:48:32.495Z,25.08
2023-05-22T08:51:04.235Z,24.90
2023-05-22T08:53:36.092Z,24.65
2023-05-22T08:56:04.800Z,24.58
2023-05-22T08:58:32.912Z,24.60
2023-05-22T09:00:59.591Z,24.46
2023-05-22T09:03:32.136Z,24.19
2023-05-22T09:05:59.137Z,23.78
2023-05-22T09:08:26.695Z,23.37
2023-05-22T09:10:55.576Z,23.20
2023-05-22T09:13:30.007Z,23.23
2023-05-22T09:16:07.365Z,23.37
2023-05-22T09:18:34.036Z,23.35
2023-05-22T09:21:02.670Z,23.39
2023-05-22T09:23:29.454Z,23.32
2023-05-22T09:25:57.144Z,23.11
2023-05-22T09:28:24.170Z,23.18
2023-05-22T09:30:52.760Z,23.28
2023-05-22T09:33:19.957Z,23.24
2023-05-22T09:35:46.633Z,23.26
2023-05-22T09:38:13.530Z,23.40
2023-05-22T09:40:41.385Z,23.58
2023-05-22T09:43:11.493Z,23.59
2023-05-22T09:45:38.614Z,23.54
2023-05-22T09:48:06.136Z,23.66
2023-05-22T09:50:32.791Z,23.85
2023-05-22T09:53:03.632Z,24.02
2023-05-22T09:55:31.425Z,24.12
2023-05-22T09:58:00.662Z,24.25
2023-05-22T10:00:27.395Z,24.11
2023-05-22T10:03:24.177Z,24.01
2023-05-22T10:05:53.442Z,24.15
2023-05-22T10:08:22.830Z,24.16
2023-05-22T10:10:52.666Z,24.22
2023-05-22T10:13:20.357Z,24.34
2023-05-22T10:15:48.425Z,24.36
2023-05-22T10:18:16.118Z,24.19
2023-05-22T10:20:43.466Z,24.23
2023-05-22T10:23:10.620Z,24.26
2023-05-22T10:25:38.989Z,24.15
2023-05-22T10:28:06.420Z,24.09
2023-05-22T10:30:40.442Z,24.22
2023-05-22T10:33:41.529Z,24.26
2023-05-22T10:36:48.343Z,24.23
2023-05-22T10:40:01.766Z,24.28
2023-05-22T10:42:32.437Z,24.15
2023-05-22T10:45:03.136Z,24.00
2023-05-22T10:47:34.525Z,23.98
2023-05-22T10:50:10.488Z,23.86
2023-05-22T10:52:38.044Z,23.75
2023-05-22T10:55:08.809Z,23.50
2023-05-22T10:57:38.996Z,23.45
2023-05-22T11:00:10.746Z,23.55
2023-05-22T11:02:42.635Z,23.57
2023-05-22T11:05:16.456Z,23.60
2023-05-22T11:07:43.210Z,23.68
2023-05-22T11:10:09.912Z,23.72
2023-05-22T11:12:36.864Z,23.57
2023-05-22T11:15:11.281Z,23.45
2023-05-22T11:17:44.329Z,23.46
2023-05-22T11:20:25.164Z,23.57
2023-05-22T11:23:06.904Z,23.67
2023-05-22T11:25:35.005Z,23.59
2023-05-22T11:28:03.161Z,23.52
2023-05-22T11:30:30.250Z,23.43
2023-05-22T11:32:57.813Z,23.62
2023-05-22T11:35:24.728Z,23.90
2023-05-22T11:37:52.811Z,24.03
2023-05-22T11:40:24.883Z,24.00
2023-05-22T11:42:54.647Z,23.87
2023-05-22T11:45:21.778Z,23.76
2023-05-22T11:47:49.778Z,23.85
2023-05-22T11:50:22.733Z,23.93
2023-05-22T11:52:53.231Z,24.04
2023-05-22T11:55:19.908Z,24.12
2023-05-22T11:57:47.439Z,24.21
2023-05-22T12:00:16.021Z,24.25
2023-05-22T12:02:46.950Z,24.32
2023-05-22T12:05:15.297Z,24.35
2023-05-22T12:07:41.973Z,24.32
2023-05-22T12:10:09.112Z,24.35
2023-05-22T12:12:37.336Z,24.41
2023-05-22T12:15:06.885Z,24.52
2023-05-22T12:17:36.805Z,24.63
2023-05-22T12:20:05.174Z,24.77
2023-05-22T12:22:31.822Z,24.91
2023-05-22T12:24:58.436Z,24.88
2023-05-22T12:27:30.491Z,24.69
2023-05-22T12:29:58.314Z,24.64
2023-05-22T12:32:25.304Z,24.69
2023-05-22T12:34:52.309Z,24.84
2023-05-22T12:37:25.437Z,24.88
2023-05-22T12:39:57.045Z,24.94
2023-05-22T12:42:25.290Z,25.02
2023-05-22T12:44:56.612Z,25.11
2023-05-22T12:47:23.921Z,25.20
2023-05-22T12:49:53.324Z,25.28
2023-05-22T12:52:19.953Z,25.28
2023-05-22T12:54:46.587Z,25.05
2023-05-22T12:57:13.252Z,24.78
2023-05-22T12:59:40.668Z,24.70
2023-05-22T13:02:11.222Z,24.60
2023-05-22T13:04:37.886Z,24.50
2023-05-22T13:07:04.966Z,24.47
2023-05-22T13:09:32.147Z,24.31
2023-05-22T13:12:00.510Z,24.24
2023-05-22T13:14:27.613Z,24.40
2023-05-22T13:16:55.722Z,24.78
2023-05-22T13:19:22.366Z,25.11
2023-05-22T13:21:49.128Z,25.19
2023-05-22T13:24:15.880Z,25.22
2023-05-22T13:26:42.726Z,25.41
2023-05-22T13:29:09.530Z,25.57
2023-05-22T13:31:37.673Z,25.53
2023-05-22T13:34:05.280Z,25.22
2023-05-22T13:36:32.165Z,24.84
2023-05-22T13:38:59.682Z,24.61
2023-05-22T13:41:26.266Z,24.61
2023-05-22T13:43:53.160Z,24.77
2023-05-22T13:46:21.108Z,24.99
2023-05-22T13:48:47.969Z,25.17
2023-05-22T13:51:14.640Z,25.06
2023-05-22T13:53:41.317Z,24.76
2023-05-22T13:56:08.034Z,24.39
2023-05-22T13:58:35.829Z,24.01
2023-05-22T14:01:02.560Z,23.77
2023-05-22T14:03:29.837Z,23.63
2023-05-22T14:05:56.526Z,23.63
2023-05-22T14:08:24.120Z,23.81
2023-05-22T14:10:52.934Z,24.16
2023-05-22T14:13:19.514Z,24.48
2023-05-22T14:15:46.443Z,24.50
2023-05-22T14:18:15.593Z,24.32
2023-05-22T14:20:42.849Z,24.03
2023-05-22T14:23:12.007Z,23.96
2023-05-22T14:25:42.415Z,24.09
2023-05-22T14:28:10.287Z,24.16
2023-05-22T14:30:39.083Z,24.22
2023-05-22T14:33:06.631Z,24.25
2023-05-22T14:35:34.013Z,24.23
2023-05-22T14:38:01.275Z,24.17
2023-05-22T14:40:27.942Z,24.10
2023-05-22T14:42:54.731Z,24.11
2023-05-22T14:45:21.524Z,24.15
2023-05-22T14:47:48.140Z,24.22
2023-05-22T14:50:19.719Z,24.20
2023-05-22T14:52:48.299Z,24.20
2023-05-22T14:55:15.960Z,24.13
2023-05-22T14:57:42.740Z,23.99
2023-05-22T15:00:11.463Z,23.87
2023-05-22T15:02:38.144Z,23.75
2023-05-22T15:05:06.404Z,23.67
2023-05-22T15:07:43.156Z,23.61
2023-05-22T15:10:12.444Z,23.53
2023-05-22T15:12:39.187Z,23.48
2023-05-22T15:15:06.792Z,23.48
2023-05-22T15:17:33.578Z,23.56
2023-05-22T15:20:00.316Z,23.67
2023-05-22T15:22:26.961Z,23.70
2023-05-22T15:25:08.000Z,23.69
2023-05-22T15:27:37.796Z,23.63
2023-05-22T15:30:06.118Z,23.53
2023-05-22T15:32:32.870Z,23.41
2023-05-22T15:34:59.842Z,23.29
2023-05-22T15:37:27.160Z,23.27
2023-05-22T15:39:53.875Z,23.25
2023-05-22T15:42:21.480Z,23.23
2023-05-22T15:44:48.204Z,23.27
2023-05-22T15:47:15.993Z,23.35
2023-05-22T15:49:42.682Z,23.45
2023-05-22T15:52:09.506Z,23.53
2023-05-22T15:54:36.098Z,23.59
2023-05-22T15:57:03.013Z,23.63
2023-05-22T15:59:29.656Z,23.64
2023-05-22T16:01:56.204Z,23.58
2023-05-22T16:04:22.961Z,23.51
2023-05-22T16:06:49.572Z,23.45
2023-05-22T16:09:17.980Z,23.36
2023-05-22T16:11:45.197Z,23.24
2023-05-22T16:14:11.812Z,23.14
2023-05-22T16:16:38.503Z,23.20
2023-05-22T16:19:05.476Z,23.20
2023-05-22T16:21:32.245Z,23.21
2023-05-22T16:23:58.899Z,23.17
2023-05-22T16:26:26.339Z,23.17
2023-05-22T16:28:52.927Z,23.14
2023-05-22T16:31:19.629Z,23.10
2023-05-22T16:33:46.372Z,23.07
2023-05-22T16:36:13.036Z,23.07
2023-05-22T16:38:39.712Z,23.06
2023-05-22T16:41:06.362Z,23.01
2023-05-22T16:43:33.073Z,22.82
2023-05-22T16:45:59.748Z,22.73
2023-05-22T16:48:26.534Z,22.68
2023-05-22T16:50:53.338Z,22.60
2023-05-22T16:53:20.178Z,22.53
2023-05-22T16:55:46.871Z,22.45
2023-05-22T16:58:13.610Z,22.38
2023-05-22T17:00:40.791Z,22.29
2023-05-22T17:03:08.081Z,22.19
2023-05-22T17:05:35.657Z,22.09
2023-05-22T17:08:02.564Z,21.98
2023-05-22T17:10:29.228Z,21.88
2023-05-22T17:12:55.894Z,21.78
2023-05-22T17:15:22.864Z,21.69
2023-05-22T17:17:50.075Z,21.61
2023-05-22T17:20:16.837Z,21.55
2023-05-22T17:22:43.589Z,21.52
2023-05-22T17:25:10.321Z,21.50
2023-05-22T17:27:37.213Z,21.49
2023-05-22T17:30:06.098Z,21.48
2023-05-22T17:32:34.370Z,21.46
2023-05-22T17:35:01.770Z,21.42
2023-05-22T17:37:28.443Z,21.34
2023-05-22T17:39:55.176Z,21.22
2023-05-22T17:42:22.645Z,21.09
2023-05-22T17:44:49.484Z,20.95
2023-05-22T17:47:16.297Z,20.81
2023-05-22T17:49:43.055Z,20.66
2023-05-22T17:52:10.634Z,20.48
2023-05-22T17:54:37.482Z,20.27
2023-05-22T17:57:04.870Z,20.05
2023-05-22T17:59:31.920Z,19.83
2023-05-22T18:02:02.671Z,19.58
2023-05-22T18:04:30.156Z,19.29
2023-05-22T18:06:56.998Z,19.02
2023-05-22T18:09:23.737Z,18.81
2023-05-22T18:11:55.366Z,18.58
2023-05-22T18:14:23.308Z,18.36
2023-05-22T18:16:50.178Z,18.14
2023-05-22T18:19:17.146Z,17.95
2023-05-22T18:21:44.711Z,17.77
2023-05-22T18:24:14.821Z,17.60
2023-05-22T18:26:42.736Z,17.44
2023-05-22T18:29:09.778Z,17.32
2023-05-22T18:31:38.882Z,17.20
2023-05-22T18:34:05.575Z,17.10
2023-05-22T18:36:35.662Z,17.01
2023-05-22T18:39:04.381Z,16.90
2023-05-22T18:41:34.464Z,16.81
2023-05-22T18:44:01.082Z,16.71
2023-05-22T18:46:27.693Z,16.61
2023-05-22T18:48:55.091Z,16.49
2023-05-22T18:51:24.173Z,16.35
2023-05-22T18:53:51.377Z,16.21
2023-05-22T18:56:20.772Z,16.09
2023-05-22T18:58:50.013Z,15.98
2023-05-22T19:01:16.869Z,15.87
2023-05-22T19:03:43.642Z,15.77
2023-05-22T19:06:12.229Z,15.68
2023-05-22T19:08:39.912Z,15.59
2023-05-22T19:11:07.473Z,15.51
2023-05-22T19:13:34.454Z,15.46
2023-05-22T19:16:04.239Z,15.38
2023-05-22T19:18:32.235Z,15.31
2023-05-22T19:21:00.163Z,15.22
2023-05-22T19:23:29.476Z,15.13
2023-05-22T19:25:57.712Z,15.04
2023-05-22T19:28:26.445Z,14.95
2023-05-22T19:30:56.859Z,14.85
2023-05-22T19:33:25.734Z,14.75
2023-05-22T19:35:53.614Z,14.66
2023-05-22T19:38:21.052Z,14.58
2023-05-22T19:40:48.058Z,14.50
2023-05-22T19:43:15.835Z,14.42
2023-05-22T19:45:45.122Z,14.33
2023-05-22T19:48:13.104Z,14.26
2023-05-22T19:50:41.260Z,14.19
2023-05-22T19:53:08.315Z,14.13
2023-05-22T19:55:36.445Z,14.07
2023-05-22T19:58:03.993Z,14.00
2023-05-22T20:00:31.310Z,13.93
2023-05-22T20:02:58.119Z,13.86
2023-05-22T20:05:25.442Z,13.77
2023-05-22T20:07:53.760Z,13.68
2023-05-22T20:10:20.497Z,13.59
2023-05-22T20:12:47.180Z,13.52
2023-05-22T20:15:15.374Z,13.45
2023-05-22T20:17:46.887Z,13.39
2023-05-22T20:20:13.912Z,13.32
2023-05-22T20:22:41.676Z,13.23
2023-05-22T20:25:09.276Z,13.15
2023-05-22T20:27:36.719Z,13.07
2023-05-22T20:30:04.285Z,13.00
2023-05-22T20:32:31.769Z,12.92
2023-05-22T20:34:59.443Z,12.85
2023-05-22T20:37:26.219Z,12.80
2023-05-22T20:39:52.927Z,12.74
2023-05-22T20:42:19.688Z,12.68
2023-05-22T20:44:46.948Z,12.93
2023-05-22T20:47:13.677Z,14.05
2023-05-22T20:49:40.725Z,14.82
2023-05-22T20:52:09.521Z,15.26
2023-05-22T20:54:36.870Z,15.56
2023-05-22T20:57:03.970Z,15.82
2023-05-22T20:59:31.600Z,16.03
2023-05-22T21:01:58.324Z,16.23
2023-05-22T21:04:25.484Z,16.41
2023-05-22T21:06:52.305Z,16.54
2023-05-22T21:09:19.252Z,16.63
2023-05-22T21:11:46.808Z,16.63
2023-05-22T21:14:13.955Z,16.04
2023-05-22T21:16:40.647Z,15.29
2023-05-22T21:19:07.943Z,14.69
2023-05-22T21:21:40.797Z,14.24
2023-05-22T21:24:09.246Z,13.88
2023-05-22T21:26:35.845Z,13.60
2023-05-22T21:29:03.326Z,13.32
2023-05-22T21:31:30.187Z,13.05
2023-05-22T21:33:56.954Z,12.82
2023-05-22T21:36:23.618Z,12.60
2023-05-22T21:38:52.518Z,12.42
2023-05-22T21:41:19.155Z,12.27
2023-05-22T21:43:46.944Z,12.14
2023-05-22T21:46:13.674Z,12.01
2023-05-22T21:48:40.400Z,11.87
2023-05-22T21:51:07.032Z,11.73
2023-05-22T21:53:33.695Z,11.69
2023-05-22T21:56:00.440Z,12.31
2023-05-22T21:58:27.177Z,13.15
2023-05-22T22:00:53.813Z,13.79
2023-05-22T22:03:20.958Z,14.24
2023-05-22T22:05:47.832Z,14.59
2023-05-22T22:08:14.394Z,14.84
2023-05-22T22:10:41.258Z,15.07
2023-05-22T22:13:08.171Z,15.25
2023-05-22T22:15:36.052Z,15.40
2023-05-22T22:18:04.407Z,15.37
2023-05-22T22:20:43.227Z,14.68
2023-05-22T22:23:11.627Z,13.90
2023-05-22T22:25:38.500Z,13.34
2023-05-22T22:28:05.470Z,12.91
2023-05-22T22:30:32.270Z,12.56
2023-05-22T22:32:59.055Z,12.27
2023-05-22T22:35:25.827Z,12.02
2023-05-22T22:37:52.424Z,11.80
2023-05-22T22:40:19.133Z,11.57
2023-05-22T22:42:45.775Z,11.36
2023-05-22T22:45:12.412Z,11.18
2023-05-22T22:47:39.201Z,11.01
2023-05-22T22:50:06.804Z,11.35
2023-05-22T22:52:33.650Z,12.19
2023-05-22T22:55:01.822Z,12.87
2023-05-22T22:57:28.635Z,13.36
2023-05-22T22:59:55.325Z,13.74
2023-05-22T23:02:21.899Z,14.01
2023-05-22T23:04:48.611Z,14.22
2023-05-22T23:07:15.820Z,14.41
2023-05-22T23:09:42.433Z,14.59
2023-05-22T23:12:09.288Z,14.74
2023-05-22T23:14:37.165Z,14.47
2023-05-22T23:17:04.002Z,13.70
2023-05-22T23:19:31.068Z,13.04
2023-05-22T23:21:57.835Z,12.52
2023-05-22T23:24:24.635Z,12.11
2023-05-22T23:26:52.257Z,11.77
2023-05-22T23:29:18.935Z,11.47
2023-05-22T23:31:46.863Z,11.22
2023-05-22T23:34:14.182Z,10.99
2023-05-22T23:36:40.823Z,10.78
2023-05-22T23:39:07.434Z,10.59
2023-05-22T23:41:34.882Z,10.42
2023-05-22T23:44:02.044Z,10.26
2023-05-22T23:46:28.860Z,10.24
2023-05-22T23:48:55.810Z,10.94
2023-05-22T23:51:22.499Z,11.78
2023-05-22T23:53:49.211Z,12.40
2023-05-22T23:56:16.317Z,12.86
2023-05-22T23:58:43.159Z,13.20
